createdAt,value
2023-02-03T00:02:24.365Z,146.73
2023-02-03T00:04:51.175Z,150.88
2023-02-03T00:07:18.061Z,151.57
2023-02-03T00:09:44.956Z,150.70
2023-02-03T00:12:11.864Z,147.38
2023-02-03T00:14:38.631Z,154.57
2023-02-03T00:17:06.394Z,158.80
2023-02-03T00:19:33.421Z,160.38
2023-02-03T00:22:00.311Z,146.43
2023-02-03T00:24:27.305Z,153.50
2023-02-03T00:26:54.171Z,152.00
2023-02-03T00:29:25.098Z,146.23
2023-02-03T00:31:54.177Z,150.13
2023-02-03T00:34:21.391Z,156.88
2023-02-03T00:36:48.565Z,147.45
2023-02-03T00:39:16.499Z,144.32
2023-02-03T00:41:43.516Z,143.80
2023-02-03T00:44:10.352Z,140.43
2023-02-03T00:46:37.297Z,145.45
2023-02-03T00:49:04.810Z,152.07
2023-02-03T00:51:32.384Z,139.15
2023-02-03T00:53:59.233Z,138.80
2023-02-03T00:56:26.263Z,139.85
2023-02-03T00:58:53.417Z,143.60
2023-02-03T01:01:20.360Z,136.48
2023-02-03T01:03:47.219Z,133.32
2023-02-03T01:06:17.961Z,146.98
2023-02-03T01:08:45.362Z,136.30
2023-02-03T01:11:17.281Z,138.63
2023-02-03T01:13:44.866Z,155.80
2023-02-03T01:16:14.318Z,135.48
2023-02-03T01:18:42.303Z,147.85
2023-02-03T01:21:16.608Z,141.52
2023-02-03T01:23:44.163Z,145.75
2023-02-03T01:26:14.366Z,153.98
2023-02-03T01:28:41.864Z,140.57
2023-02-03T01:31:37.381Z,132.95
2023-02-03T01:34:09.485Z,149.23
2023-02-03T01:36:36.351Z,137.30
2023-02-03T01:39:05.244Z,147.50
2023-02-03T01:41:35.838Z,156.00
2023-02-03T01:44:52.520Z,146.73
2023-02-03T01:47:22.438Z,134.15
2023-02-03T01:50:02.678Z,141.25
2023-02-03T01:52:29.890Z,148.48
2023-02-03T01:54:59.263Z,134.88
2023-02-03T01:57:42.968Z,148.75
2023-02-03T02:00:11.004Z,142.07
2023-02-03T02:02:43.932Z,134.25
2023-02-03T02:05:20.563Z,132.82
2023-02-03T02:07:48.542Z,149.70
2023-02-03T02:10:15.510Z,133.40
2023-02-03T02:12:42.678Z,137.63
2023-02-03T02:15:10.205Z,132.20
2023-02-03T02:18:05.617Z,145.18
2023-02-03T02:20:49.109Z,135.50
2023-02-03T02:23:57.463Z,131.90
2023-02-03T02:26:37.419Z,137.55
2023-02-03T02:29:25.195Z,125.68
2023-02-03T02:31:52.281Z,154.13
2023-02-03T02:34:33.843Z,143.77
2023-02-03T02:37:06.364Z,145.05
2023-02-03T02:39:56.096Z,133.13
2023-02-03T02:42:28.881Z,148.40
2023-02-03T02:45:21.095Z,127.07
2023-02-03T02:47:49.151Z,127.60
2023-02-03T02:50:26.094Z,130.77
2023-02-03T02:52:54.467Z,129.95
2023-02-03T02:55:24.827Z,141.23
2023-02-03T02:57:58.077Z,132.70
2023-02-03T03:00:29.873Z,145.80
2023-02-03T03:02:57.742Z,150.85
2023-02-03T03:05:27.826Z,143.35
2023-02-03T03:08:02.899Z,142.73
2023-02-03T03:10:33.015Z,139.77
2023-02-03T03:13:05.867Z,137.63
2023-02-03T03:15:35.309Z,127.13
2023-02-03T03:18:13.421Z,125.40
2023-02-03T03:20:44.394Z,142.27
2023-02-03T03:23:29.285Z,132.93
2023-02-03T03:26:13.336Z,134.93
2023-02-03T03:28:49.110Z,141.05
2023-02-03T03:31:19.213Z,136.90
2023-02-03T03:33:47.901Z,140.07
2023-02-03T03:36:24.639Z,139.85
2023-02-03T03:39:03.682Z,145.18
2023-02-03T03:41:41.569Z,140.00
2023-02-03T03:44:13.393Z,132.00
2023-02-03T03:47:26.266Z,135.98
2023-02-03T03:49:55.326Z,132.40
2023-02-03T03:52:28.372Z,147.70
2023-02-03T03:54:56.683Z,136.77
2023-02-03T03:57:30.029Z,142.43
2023-02-03T03:59:58.313Z,129.25
2023-02-03T04:02:25.781Z,130.68
2023-02-03T04:04:54.707Z,140.05
2023-02-03T04:07:21.523Z,130.65
2023-02-03T04:09:48.436Z,130.32
2023-02-03T04:12:24.985Z,134.27
2023-02-03T04:14:51.827Z,132.85
2023-02-03T04:17:20.444Z,135.13
2023-02-03T04:19:48.765Z,138.88
2023-02-03T04:22:15.636Z,149.07
2023-02-03T04:24:42.472Z,138.35
2023-02-03T04:27:09.317Z,124.28
2023-02-03T04:29:36.117Z,131.60
2023-02-03T04:32:03.027Z,142.98
2023-02-03T04:34:29.899Z,129.93
2023-02-03T04:36:56.711Z,143.98
2023-02-03T04:39:23.605Z,131.88
2023-02-03T04:41:50.626Z,139.50
2023-02-03T04:44:17.397Z,142.27
2023-02-03T04:46:44.251Z,134.73
2023-02-03T04:49:11.836Z,140.02
2023-02-03T04:51:38.836Z,146.70
2023-02-03T04:54:05.660Z,129.75
2023-02-03T04:56:32.491Z,138.57
2023-02-03T04:58:59.319Z,133.27
2023-02-03T05:01:26.235Z,143.35
2023-02-03T05:03:53.094Z,143.05
2023-02-03T05:06:28.953Z,129.00
2023-02-03T05:08:56.035Z,125.22
2023-02-03T05:11:22.924Z,128.13
2023-02-03T05:13:50.141Z,129.63
2023-02-03T05:16:17.329Z,147.25
2023-02-03T05:18:44.194Z,127.85
2023-02-03T05:21:11.050Z,145.10
2023-02-03T05:23:37.970Z,133.05
2023-02-03T05:26:05.325Z,136.18
2023-02-03T05:28:32.187Z,135.07
2023-02-03T05:31:00.175Z,125.97
2023-02-03T05:33:27.120Z,140.90
2023-02-03T05:35:54.320Z,139.40
2023-02-03T05:38:21.285Z,136.65
2023-02-03T05:41:10.599Z,128.55
2023-02-03T05:43:37.689Z,135.88
2023-02-03T05:46:06.483Z,130.55
2023-02-03T05:48:34.779Z,129.38
2023-02-03T05:51:01.977Z,136.30
2023-02-03T05:53:28.963Z,149.18
2023-02-03T05:55:55.971Z,148.60
2023-02-03T05:58:22.895Z,133.13
2023-02-03T06:00:49.683Z,131.82
2023-02-03T06:03:16.579Z,144.43
2023-02-03T06:05:44.398Z,152.90
2023-02-03T06:08:11.439Z,139.82
2023-02-03T06:10:38.273Z,140.68
2023-02-03T06:13:14.029Z,143.05
2023-02-03T06:15:40.910Z,146.13
2023-02-03T06:18:08.582Z,137.75
2023-02-03T06:20:35.502Z,151.90
2023-02-03T06:23:02.493Z,140.77
2023-02-03T06:25:29.321Z,143.63
2023-02-03T06:27:56.193Z,133.10
2023-02-03T06:30:24.038Z,142.95
2023-02-03T06:32:51.294Z,133.80
2023-02-03T06:35:18.925Z,139.63
2023-02-03T06:37:45.874Z,131.90
2023-02-03T06:40:13.229Z,137.73
2023-02-03T06:42:40.143Z,129.85
2023-02-03T06:45:07.436Z,149.50
2023-02-03T06:47:34.386Z,139.75
2023-02-03T06:50:01.243Z,133.63
2023-02-03T06:52:28.126Z,130.75
2023-02-03T06:54:54.943Z,133.20
2023-02-03T06:57:21.767Z,131.35
2023-02-03T06:59:48.600Z,142.30
2023-02-03T07:02:16.044Z,133.57
2023-02-03T07:04:45.220Z,141.90
2023-02-03T07:07:12.602Z,137.30
2023-02-03T07:09:40.145Z,144.88
2023-02-03T07:12:08.292Z,150.38
2023-02-03T07:14:39.603Z,152.07
2023-02-03T07:17:07.125Z,132.73
2023-02-03T07:19:34.083Z,137.98
2023-02-03T07:22:00.960Z,133.82
2023-02-03T07:24:27.793Z,133.00
2023-02-03T07:26:54.631Z,136.70
2023-02-03T07:29:21.496Z,129.85
2023-02-03T07:31:48.468Z,130.23
2023-02-03T07:34:15.627Z,130.80
2023-02-03T07:36:42.515Z,134.40
2023-02-03T07:39:09.355Z,131.93
2023-02-03T07:41:36.300Z,139.20
2023-02-03T07:44:03.176Z,143.93
2023-02-03T07:46:30.146Z,136.00
2023-02-03T07:48:57.111Z,135.95
2023-02-03T07:51:23.976Z,136.15
2023-02-03T07:53:50.809Z,140.95
2023-02-03T07:56:17.676Z,138.15
2023-02-03T07:58:44.513Z,147.85
2023-02-03T08:01:16.902Z,139.73
2023-02-03T08:03:43.973Z,140.43
2023-02-03T08:06:11.123Z,144.90
2023-02-03T08:08:38.095Z,154.27
2023-02-03T08:11:05.168Z,142.55
2023-02-03T08:13:32.014Z,140.32
2023-02-03T08:15:59.134Z,151.30
2023-02-03T08:18:26.211Z,143.70
2023-02-03T08:20:53.049Z,155.15
2023-02-03T08:23:20.194Z,143.48
2023-02-03T08:25:51.457Z,144.52
2023-02-03T08:28:18.710Z,149.00
2023-02-03T08:30:45.714Z,157.38
2023-02-03T08:33:12.643Z,148.57
2023-02-03T08:35:40.277Z,144.27
2023-02-03T08:38:07.324Z,155.65
2023-02-03T08:40:34.324Z,147.18
2023-02-03T08:43:01.173Z,141.15
2023-02-03T08:45:28.182Z,153.10
2023-02-03T08:47:55.051Z,147.07
2023-02-03T08:50:21.943Z,158.57
2023-02-03T08:52:48.836Z,156.57
2023-02-03T08:55:15.853Z,145.25
2023-02-03T08:57:42.731Z,146.73
2023-02-03T09:00:10.598Z,160.30
2023-02-03T09:02:37.496Z,160.15
2023-02-03T09:05:04.666Z,149.65
2023-02-03T09:07:31.604Z,152.55
2023-02-03T09:09:58.467Z,164.90
2023-02-03T09:12:25.321Z,148.52
2023-02-03T09:14:52.316Z,158.95
2023-02-03T09:17:19.197Z,155.18
2023-02-03T09:19:46.125Z,153.93
2023-02-03T09:22:13.786Z,159.15
2023-02-03T09:24:40.711Z,155.35
2023-02-03T09:27:07.587Z,165.35
2023-02-03T09:29:34.449Z,153.80
2023-02-03T09:32:07.097Z,159.75
2023-02-03T09:34:34.012Z,152.93
2023-02-03T09:37:00.901Z,158.23
2023-02-03T09:39:27.776Z,158.55
2023-02-03T09:42:03.764Z,165.05
2023-02-03T09:45:10.730Z,159.77
2023-02-03T09:47:43.240Z,156.90
2023-02-03T09:50:29.587Z,158.15
2023-02-03T09:52:59.081Z,164.68
2023-02-03T09:55:39.699Z,159.50
2023-02-03T09:58:12.780Z,167.82
2023-02-03T10:00:44.741Z,222.25
2023-02-03T10:03:52.453Z,156.57
2023-02-03T10:06:42.036Z,159.10
2023-02-03T10:09:37.760Z,160.88
2023-02-03T10:12:22.642Z,151.52
2023-02-03T10:15:38.662Z,152.65
2023-02-03T10:18:28.401Z,158.73
2023-02-03T10:21:02.542Z,152.50
2023-02-03T10:23:40.819Z,169.13
2023-02-03T10:26:17.442Z,161.68
2023-02-03T10:28:54.975Z,169.63
2023-02-03T10:31:27.932Z,154.02
2023-02-03T10:34:01.976Z,160.77
2023-02-03T10:36:58.339Z,170.10
2023-02-03T10:39:45.973Z,159.10
2023-02-03T10:42:14.038Z,170.20
2023-02-03T10:44:57.282Z,168.73
2023-02-03T10:47:36.702Z,172.05
2023-02-03T10:50:07.976Z,154.23
2023-02-03T10:52:36.394Z,159.13
2023-02-03T10:55:08.077Z,169.88
2023-02-03T10:57:39.640Z,159.02
2023-02-03T11:00:29.646Z,165.25
2023-02-03T11:03:22.366Z,169.95
2023-02-03T11:06:05.302Z,158.20
2023-02-03T11:08:33.415Z,167.30
2023-02-03T11:11:06.796Z,157.60
2023-02-03T11:13:34.149Z,154.55
2023-02-03T11:16:02.647Z,155.23
2023-02-03T11:18:44.827Z,169.57
2023-02-03T11:21:16.516Z,157.15
2023-02-03T11:23:54.899Z,169.98
2023-02-03T11:26:27.683Z,163.00
2023-02-03T11:28:58.247Z,164.15
2023-02-03T11:31:28.853Z,156.68
2023-02-03T11:34:00.052Z,165.82
2023-02-03T11:36:29.251Z,153.40
2023-02-03T11:39:16.538Z,168.90
2023-02-03T11:41:43.515Z,155.32
2023-02-03T11:44:19.277Z,154.88
2023-02-03T11:46:50.262Z,160.55
2023-02-03T11:49:40.321Z,154.65
2023-02-03T11:52:35.937Z,152.57
2023-02-03T11:55:35.186Z,153.10
2023-02-03T11:58:08.117Z,153.90
2023-02-03T12:00:59.811Z,168.23
2023-02-03T12:03:29.497Z,155.65
2023-02-03T12:06:18.107Z,158.98
2023-02-03T12:08:48.008Z,164.10
2023-02-03T12:11:17.853Z,160.75
2023-02-03T12:14:15.292Z,163.10
2023-02-03T12:17:12.649Z,165.82
2023-02-03T12:19:59.293Z,151.45
2023-02-03T12:25:50.548Z,148.02
2023-02-03T12:28:33.761Z,161.35
2023-02-03T12:31:09.903Z,155.18
2023-02-03T12:33:44.546Z,160.25
2023-02-03T12:36:16.523Z,151.75
2023-02-03T12:39:09.365Z,154.75
2023-02-03T12:41:43.098Z,163.57
2023-02-03T12:44:34.583Z,152.07
2023-02-03T12:47:12.631Z,166.20
2023-02-03T12:50:02.767Z,163.32
2023-02-03T12:52:43.289Z,154.77
2023-02-03T12:55:32.712Z,156.60
2023-02-03T12:58:06.055Z,164.68
2023-02-03T13:00:56.193Z,156.23
2023-02-03T13:03:35.867Z,165.15
2023-02-03T13:06:27.795Z,164.82
2023-02-03T13:09:13.089Z,166.32
2023-02-03T13:11:54.660Z,163.98
2023-02-03T13:14:24.511Z,170.80
2023-02-03T13:16:55.554Z,167.35
2023-02-03T13:19:27.705Z,167.90
2023-02-03T13:21:54.696Z,163.88
2023-02-03T13:24:25.661Z,162.85
2023-02-03T13:27:13.439Z,162.13
2023-02-03T13:29:43.130Z,158.88
2023-02-03T13:32:36.851Z,159.30
2023-02-03T13:35:34.299Z,157.50
2023-02-03T13:38:31.219Z,160.57
2023-02-03T13:41:28.345Z,161.95
2023-02-03T13:46:31.914Z,169.18
2023-02-03T13:49:01.673Z,159.10
2023-02-03T13:51:36.061Z,156.73
2023-02-03T13:54:12.823Z,166.00
2023-02-03T13:56:39.952Z,155.90
2023-02-03T13:59:15.973Z,156.15
2023-02-03T14:04:31.874Z,156.00
2023-02-03T14:07:01.953Z,160.18
2023-02-03T14:09:32.075Z,169.48
2023-02-03T14:12:32.427Z,168.32
2023-02-03T14:15:13.212Z,157.93
2023-02-03T14:17:43.095Z,165.48
2023-02-03T14:20:28.377Z,162.70
2023-02-03T14:23:07.995Z,161.05
2023-02-03T14:25:43.038Z,154.93
2023-02-03T14:28:20.289Z,155.57
2023-02-03T14:31:19.503Z,157.40
2023-02-03T14:33:49.550Z,165.98
2023-02-03T14:36:55.181Z,168.43
2023-02-03T14:39:44.503Z,156.52
2023-02-03T14:42:28.818Z,156.02
2023-02-03T14:45:10.945Z,167.35
2023-02-03T14:47:46.402Z,150.65
2023-02-03T14:50:34.793Z,161.52
2023-02-03T14:53:04.593Z,158.95
2023-02-03T14:55:46.816Z,161.82
2023-02-03T14:58:53.333Z,155.55
2023-02-03T15:01:44.009Z,162.43
2023-02-03T15:04:16.608Z,157.25
2023-02-03T15:06:48.637Z,155.85
2023-02-03T15:09:24.886Z,165.70
2023-02-03T15:17:00.385Z,156.60
2023-02-03T15:19:32.691Z,163.75
2023-02-03T15:21:59.891Z,167.57
2023-02-03T15:24:35.607Z,157.85
2023-02-03T15:27:02.462Z,162.38
2023-02-03T15:29:34.578Z,155.93
2023-02-03T15:32:15.695Z,171.52
2023-02-03T15:34:49.364Z,165.25
2023-02-03T15:37:33.643Z,156.20
2023-02-03T15:40:07.170Z,152.50
2023-02-03T15:42:34.001Z,162.10
2023-02-03T15:45:29.330Z,155.50
2023-02-03T15:48:15.020Z,156.27
2023-02-03T15:50:55.310Z,159.50
2023-02-03T15:53:41.013Z,155.55
2023-02-03T15:56:20.726Z,154.73
2023-02-03T15:58:48.406Z,156.07
2023-02-03T16:01:19.515Z,152.25
2023-02-03T16:03:52.906Z,156.90
2023-02-03T16:08:58.370Z,153.25
2023-02-03T16:11:37.343Z,153.90
2023-02-03T16:14:11.086Z,154.45
2023-02-03T16:16:55.257Z,157.77
2023-02-03T16:19:33.700Z,164.43
2023-02-03T16:22:00.628Z,156.93
2023-02-03T16:24:33.640Z,151.65
2023-02-03T16:27:39.774Z,153.20
2023-02-03T16:30:25.319Z,149.85
2023-02-03T16:33:22.160Z,162.70
2023-02-03T16:36:07.924Z,152.90
2023-02-03T16:38:53.271Z,151.30
2023-02-03T16:41:38.737Z,152.02
2023-02-03T16:44:24.098Z,153.98
2023-02-03T16:47:09.598Z,151.52
2023-02-03T16:49:55.108Z,147.57
2023-02-03T16:52:21.953Z,150.27
2023-02-03T16:54:48.873Z,152.70
2023-02-03T16:57:15.702Z,149.57
2023-02-03T16:59:42.568Z,161.80
2023-02-03T17:02:10.861Z,149.35
2023-02-03T17:04:37.907Z,161.30
2023-02-03T17:07:05.382Z,152.60
2023-02-03T17:09:35.468Z,148.38
2023-02-03T17:12:03.238Z,147.95
2023-02-03T17:14:30.989Z,153.15
2023-02-03T17:16:58.780Z,162.18
2023-02-03T17:19:25.616Z,146.18
2023-02-03T17:21:53.468Z,151.32
2023-02-03T17:24:20.413Z,147.25
2023-02-03T17:26:47.256Z,149.95
2023-02-03T17:29:14.109Z,150.90
2023-02-03T17:31:41.019Z,148.48
2023-02-03T17:34:07.894Z,146.43
2023-02-03T17:36:34.785Z,154.65
2023-02-03T17:55:11.593Z,149.75
2023-02-03T17:57:38.517Z,147.20
2023-02-03T18:00:06.729Z,156.20
2023-02-03T18:02:39.467Z,158.40
2023-02-03T18:05:06.853Z,152.55
2023-02-03T18:07:33.766Z,154.60
2023-02-03T18:10:03.690Z,153.57
2023-02-03T18:12:30.728Z,144.05
2023-02-03T18:14:57.987Z,146.75
2023-02-03T18:17:24.853Z,157.05
2023-02-03T18:19:55.701Z,153.38
2023-02-03T18:22:23.514Z,157.25
2023-02-03T18:24:53.211Z,146.80
2023-02-03T18:27:20.087Z,146.77
2023-02-03T18:29:48.401Z,148.77
2023-02-03T18:32:16.468Z,156.45
2023-02-03T18:34:43.352Z,149.60
2023-02-03T18:37:10.205Z,148.68
2023-02-03T18:39:37.089Z,161.13
2023-02-03T18:42:07.474Z,149.43
2023-02-03T18:44:34.683Z,161.15
2023-02-03T18:47:07.817Z,150.63
2023-02-03T18:49:36.443Z,150.20
2023-02-03T18:52:04.354Z,149.85
2023-02-03T18:54:31.360Z,157.82
2023-02-03T18:56:59.164Z,154.38
2023-02-03T18:59:26.309Z,152.70
2023-02-03T19:01:53.357Z,147.43
2023-02-03T19:04:20.411Z,151.40
2023-02-03T19:06:47.815Z,157.50
2023-02-03T19:09:17.228Z,151.05
2023-02-03T19:11:44.630Z,151.50
2023-02-03T19:14:13.686Z,155.43
2023-02-03T19:16:40.715Z,155.02
2023-02-03T19:19:07.686Z,147.25
2023-02-03T19:21:35.046Z,146.82
2023-02-03T19:24:02.079Z,152.50
2023-02-03T19:26:29.008Z,157.13
2023-02-03T19:28:58.892Z,149.20
2023-02-03T19:31:25.774Z,147.68
2023-02-03T19:33:52.630Z,149.30
2023-02-03T19:36:19.551Z,159.00
2023-02-03T19:38:46.469Z,153.73
2023-02-03T19:41:13.551Z,152.18
2023-02-03T19:43:40.534Z,150.07
2023-02-03T19:46:11.530Z,154.00
2023-02-03T19:48:39.853Z,151.32
2023-02-03T19:51:07.435Z,157.35
2023-02-03T19:53:34.705Z,160.65
2023-02-03T19:56:01.537Z,151.73
2023-02-03T19:58:28.391Z,149.48
2023-02-03T20:00:55.353Z,155.98
2023-02-03T20:03:23.081Z,150.80
2023-02-03T20:05:53.027Z,147.40
2023-02-03T20:08:20.172Z,159.18
2023-02-03T20:10:47.318Z,150.13
2023-02-03T20:13:15.069Z,151.75
2023-02-03T20:15:42.550Z,149.32
2023-02-03T20:18:09.405Z,154.02
2023-02-03T20:20:36.627Z,161.75
2023-02-03T20:23:03.963Z,156.75
2023-02-03T20:25:31.093Z,152.82
2023-02-03T20:27:59.827Z,159.65
2023-02-03T20:30:30.135Z,159.57
2023-02-03T20:32:57.260Z,147.70
2023-02-03T20:35:25.322Z,160.35
2023-02-03T20:37:53.149Z,146.32
2023-02-03T20:40:23.129Z,158.50
2023-02-03T20:42:51.422Z,160.48
2023-02-03T20:45:20.219Z,149.80
2023-02-03T20:47:47.807Z,160.63
2023-02-03T20:50:22.641Z,152.63
2023-02-03T20:52:53.104Z,154.57
2023-02-03T20:55:22.545Z,154.02
2023-02-03T20:57:55.262Z,146.35
2023-02-03T21:00:26.387Z,151.10
2023-02-03T21:03:12.515Z,152.50
2023-02-03T21:05:44.655Z,148.98
2023-02-03T21:08:14.385Z,157.45
2023-02-03T21:10:41.714Z,147.27
2023-02-03T21:13:30.293Z,158.30
2023-02-03T21:16:00.309Z,146.88
2023-02-03T21:18:50.799Z,155.85
2023-02-03T21:21:25.015Z,148.75
2023-02-03T21:23:53.214Z,151.15
2023-02-03T21:26:20.324Z,151.02
2023-02-03T21:28:49.432Z,148.73
2023-02-03T21:31:37.605Z,148.65
2023-02-03T21:34:25.134Z,155.98
2023-02-03T21:36:51.997Z,154.07
2023-02-03T21:39:35.188Z,147.05
2023-02-03T21:42:41.321Z,158.35
2023-02-03T21:45:17.823Z,156.05
2023-02-03T21:47:49.829Z,146.32
2023-02-03T21:50:31.583Z,147.75
2023-02-03T21:53:21.383Z,145.20
2023-02-03T21:55:48.263Z,151.43
2023-02-03T21:58:24.140Z,146.13
2023-02-03T22:00:53.666Z,142.98
2023-02-03T22:03:28.252Z,150.70
2023-02-03T22:06:17.692Z,150.27
2023-02-03T22:08:49.452Z,157.18
2023-02-03T22:11:21.629Z,163.57
2023-02-03T22:13:48.536Z,139.82
2023-02-03T22:16:17.396Z,156.98
2023-02-03T22:18:46.489Z,149.82
2023-02-03T22:21:14.070Z,147.50
2023-02-03T22:23:41.588Z,144.73
2023-02-03T22:26:10.527Z,163.27
2023-02-03T22:28:38.132Z,161.45
2023-02-03T22:31:09.025Z,161.45
2023-02-03T22:33:36.056Z,163.85
2023-02-03T22:36:06.645Z,160.65
2023-02-03T22:38:34.925Z,158.70
2023-02-03T22:41:02.614Z,159.60
2023-02-03T22:43:31.175Z,156.45
2023-02-03T22:45:58.592Z,156.93
2023-02-03T22:48:25.557Z,150.98
2023-02-03T22:50:52.454Z,151.13
2023-02-03T22:53:19.405Z,146.48
2023-02-03T22:55:46.297Z,156.80
2023-02-03T22:58:13.148Z,153.65
2023-02-03T23:00:40.032Z,144.43
2023-02-03T23:03:07.080Z,146.55
2023-02-03T23:05:34.248Z,148.07
2023-02-03T23:08:01.313Z,146.20
2023-02-03T23:10:33.562Z,156.82
2023-02-03T23:13:00.960Z,144.40
2023-02-03T23:15:28.253Z,151.63
2023-02-03T23:17:55.241Z,155.02
2023-02-03T23:20:22.089Z,147.57
2023-02-03T23:22:49.082Z,155.35
2023-02-03T23:25:16.113Z,150.93
2023-02-03T23:27:46.422Z,156.98
2023-02-03T23:30:14.722Z,157.27
2023-02-03T23:32:41.925Z,153.38
2023-02-03T23:35:27.748Z,155.88
2023-02-03T23:37:54.669Z,152.07
2023-02-03T23:40:21.988Z,145.95
2023-02-03T23:42:49.465Z,147.20
2023-02-03T23:45:17.860Z,161.63
2023-02-03T23:47:46.342Z,158.20
2023-02-03T23:50:16.456Z,146.05
2023-02-03T23:52:43.352Z,148.02
2023-02-03T23:55:17.302Z,145.27
2023-02-03T23:57:44.653Z,147.50
